createdAt,value
2019-04-30T00:00:42.491Z,66.95
2019-04-30T00:03:25.039Z,65.32
2019-04-30T00:05:57.319Z,67.12
2019-04-30T00:08:30.177Z,67.00
2019-04-30T00:10:59.708Z,65.95
2019-04-30T00:13:30.135Z,65.97
2019-04-30T00:16:01.701Z,63.35
2019-04-30T00:18:38.200Z,63.80
2019-04-30T00:21:05.494Z,64.85
2019-04-30T00:23:36.057Z,66.37
2019-04-30T00:26:10.327Z,62.93
2019-04-30T00:28:39.486Z,61.45
2019-04-30T00:31:11.559Z,61.80
2019-04-30T00:33:41.977Z,62.70
2019-04-30T00:36:12.512Z,63.60
2019-04-30T00:38:44.496Z,62.53
2019-04-30T00:41:15.571Z,62.95
2019-04-30T00:43:49.346Z,60.60
2019-04-30T00:46:25.032Z,59.33
2019-04-30T00:48:50.216Z,62.05
2019-04-30T00:51:21.404Z,56.73
2019-04-30T00:53:53.216Z,57.90
2019-04-30T00:56:26.924Z,57.70
2019-04-30T00:58:57.790Z,56.98
2019-04-30T01:01:56.342Z,57.10
2019-04-30T01:04:31.799Z,54.93
2019-04-30T01:07:05.331Z,55.45
2019-04-30T01:09:35.434Z,54.75
2019-04-30T01:12:05.838Z,54.42
2019-04-30T01:14:36.106Z,52.98
2019-04-30T01:17:08.831Z,53.42
2019-04-30T01:19:39.616Z,53.83
2019-04-30T01:22:10.288Z,53.33
2019-04-30T01:24:40.724Z,50.67
2019-04-30T01:27:11.179Z,53.35
2019-04-30T01:29:44.340Z,51.63
2019-04-30T01:32:18.637Z,51.13
2019-04-30T01:34:49.867Z,51.02
2019-04-30T01:37:20.244Z,50.67
2019-04-30T01:39:50.477Z,51.65
2019-04-30T01:42:21.067Z,50.52
2019-04-30T01:45:08.732Z,50.17
2019-04-30T01:47:39.745Z,50.38
2019-04-30T01:50:09.952Z,48.70
2019-04-30T01:52:55.376Z,48.50
2019-04-30T01:55:44.742Z,49.58
2019-04-30T01:58:37.257Z,48.25
2019-04-30T02:01:12.700Z,47.60
2019-04-30T02:03:42.995Z,48.35
2019-04-30T02:06:13.394Z,46.45
2019-04-30T02:08:43.756Z,46.30
2019-04-30T02:11:14.207Z,47.00
2019-04-30T02:13:44.758Z,45.90
2019-04-30T02:16:15.037Z,45.35
2019-04-30T02:18:45.467Z,46.20
2019-04-30T02:21:15.888Z,44.23
2019-04-30T02:23:46.171Z,44.55
2019-04-30T02:26:18.561Z,45.52
2019-04-30T02:28:49.688Z,44.38
2019-04-30T02:31:22.828Z,44.20
2019-04-30T02:33:54.850Z,43.55
2019-04-30T02:36:41.642Z,44.65
2019-04-30T02:39:11.909Z,44.03
2019-04-30T02:41:42.438Z,41.23
2019-04-30T02:44:13.005Z,43.52
2019-04-30T02:46:43.595Z,42.33
2019-04-30T02:49:15.252Z,41.00
2019-04-30T02:51:45.788Z,41.95
2019-04-30T02:54:24.485Z,40.30
2019-04-30T02:57:04.289Z,39.90
2019-04-30T02:59:34.871Z,41.80
2019-04-30T03:02:05.333Z,37.67
2019-04-30T03:04:35.721Z,44.55
2019-04-30T03:07:06.185Z,47.48
2019-04-30T03:09:39.314Z,47.60
2019-04-30T03:12:10.726Z,57.00
2019-04-30T03:14:40.947Z,54.53
2019-04-30T03:17:20.982Z,51.42
2019-04-30T03:19:55.957Z,49.67
2019-04-30T03:22:30.147Z,54.25
2019-04-30T03:25:01.085Z,55.33
2019-04-30T03:27:31.576Z,52.55
2019-04-30T03:30:02.049Z,53.78
2019-04-30T03:32:36.850Z,53.10
2019-04-30T03:35:05.733Z,51.70
2019-04-30T03:37:36.105Z,49.38
2019-04-30T03:40:07.185Z,52.53
2019-04-30T03:42:40.213Z,51.45
2019-04-30T03:45:12.504Z,51.45
2019-04-30T03:47:43.327Z,50.70
2019-04-30T03:50:13.774Z,49.70
2019-04-30T03:52:42.494Z,51.48
2019-04-30T03:55:11.064Z,50.63
2019-04-30T03:57:40.050Z,50.17
2019-04-30T04:00:09.433Z,51.30
2019-04-30T04:02:46.833Z,51.60
2019-04-30T04:05:39.895Z,50.70
2019-04-30T04:08:35.186Z,49.90
2019-04-30T04:11:19.866Z,51.88
2019-04-30T04:13:50.953Z,49.45
2019-04-30T04:16:21.494Z,51.02
2019-04-30T04:18:51.988Z,49.88
2019-04-30T04:21:22.385Z,50.58
2019-04-30T04:23:53.484Z,50.90
2019-04-30T04:26:24.034Z,50.70
2019-04-30T04:28:54.297Z,49.35
2019-04-30T04:31:24.741Z,49.95
2019-04-30T04:33:55.269Z,48.60
2019-04-30T04:36:30.297Z,49.10
2019-04-30T04:39:00.364Z,48.98
2019-04-30T04:41:31.289Z,47.73
2019-04-30T04:44:01.590Z,47.83
2019-04-30T04:46:32.069Z,48.10
2019-04-30T04:49:02.333Z,47.15
2019-04-30T04:51:38.490Z,49.03
2019-04-30T04:54:04.845Z,49.10
2019-04-30T04:56:35.267Z,47.85
2019-04-30T04:59:05.670Z,50.10
2019-04-30T05:01:38.841Z,49.25
2019-04-30T05:04:11.727Z,51.80
2019-04-30T05:06:42.445Z,51.00
2019-04-30T05:09:12.788Z,24.82
2019-04-30T05:11:43.167Z,30.55
2019-04-30T05:14:13.416Z,31.52
2019-04-30T05:16:43.752Z,35.43
2019-04-30T05:19:14.190Z,37.17
2019-04-30T05:21:44.946Z,36.70
2019-04-30T05:24:15.376Z,37.75
2019-04-30T05:26:45.555Z,37.63
2019-04-30T05:29:15.997Z,36.88
2019-04-30T05:31:46.309Z,36.03
2019-04-30T05:34:18.681Z,34.45
2019-04-30T05:36:49.093Z,35.15
2019-04-30T05:39:19.482Z,35.73
2019-04-30T05:41:49.760Z,34.53
2019-04-30T05:44:20.166Z,35.70
2019-04-30T05:46:50.465Z,34.55
2019-04-30T05:49:21.136Z,37.20
2019-04-30T05:51:55.102Z,37.08
2019-04-30T05:54:23.621Z,37.00
2019-04-30T05:56:54.053Z,37.38
2019-04-30T05:59:24.487Z,37.28
2019-04-30T06:01:54.825Z,38.20
2019-04-30T06:04:25.083Z,38.38
2019-04-30T06:06:55.503Z,37.90
2019-04-30T06:09:34.349Z,36.75
2019-04-30T06:12:23.618Z,38.08
2019-04-30T06:15:11.784Z,38.13
2019-04-30T06:17:42.767Z,37.30
2019-04-30T06:20:18.327Z,37.55
2019-04-30T06:22:45.745Z,37.48
2019-04-30T06:25:27.170Z,36.85
2019-04-30T06:27:48.821Z,36.70
2019-04-30T06:30:20.483Z,35.92
2019-04-30T06:32:50.941Z,36.83
2019-04-30T06:35:23.592Z,35.90
2019-04-30T06:37:53.904Z,36.10
2019-04-30T06:40:24.383Z,35.10
2019-04-30T06:42:54.757Z,35.65
2019-04-30T06:45:25.336Z,35.05
2019-04-30T06:47:56.307Z,35.98
2019-04-30T06:50:33.342Z,33.53
2019-04-30T06:53:03.701Z,34.95
2019-04-30T06:55:34.337Z,33.30
2019-04-30T06:58:14.238Z,33.08
2019-04-30T07:00:39.613Z,32.93
2019-04-30T07:03:09.934Z,32.50
2019-04-30T07:05:40.320Z,32.80
2019-04-30T07:08:55.672Z,32.53
2019-04-30T07:11:30.165Z,32.63
2019-04-30T07:14:00.552Z,31.23
2019-04-30T07:16:30.927Z,31.40
2019-04-30T07:19:01.345Z,30.57
2019-04-30T07:21:36.623Z,30.82
2019-04-30T07:24:04.758Z,30.60
2019-04-30T07:26:35.178Z,31.15
2019-04-30T07:29:05.427Z,29.12
2019-04-30T07:31:35.909Z,30.40
2019-04-30T07:34:06.358Z,29.77
2019-04-30T07:36:46.863Z,28.80
2019-04-30T07:39:09.982Z,27.52
2019-04-30T07:41:40.683Z,28.50
2019-04-30T07:44:29.411Z,28.23
2019-04-30T07:46:45.252Z,27.80
2019-04-30T07:49:15.493Z,28.30
2019-04-30T07:51:46.645Z,27.80
2019-04-30T07:54:18.992Z,27.52
2019-04-30T07:56:50.925Z,28.38
2019-04-30T07:59:21.356Z,26.93
2019-04-30T08:02:04.076Z,27.22
2019-04-30T08:04:41.518Z,26.12
2019-04-30T08:07:11.940Z,26.77
2019-04-30T08:09:42.930Z,26.35
2019-04-30T08:12:22.264Z,25.65
2019-04-30T08:14:49.417Z,25.50
2019-04-30T08:17:19.066Z,25.55
2019-04-30T08:19:50.516Z,25.12
2019-04-30T08:22:20.898Z,23.70
2019-04-30T08:24:51.310Z,24.72
2019-04-30T08:27:21.632Z,24.25
2019-04-30T08:29:52.244Z,23.70
2019-04-30T08:32:22.656Z,24.05
2019-04-30T08:34:53.236Z,23.77
2019-04-30T08:37:23.604Z,23.50
2019-04-30T08:39:54.013Z,22.25
2019-04-30T08:42:31.837Z,23.22
2019-04-30T08:44:58.457Z,22.00
2019-04-30T08:47:29.141Z,22.65
2019-04-30T08:50:02.733Z,21.12
2019-04-30T08:52:33.696Z,21.55
2019-04-30T08:55:13.484Z,20.48
2019-04-30T08:57:36.596Z,21.95
2019-04-30T09:00:09.206Z,21.25
2019-04-30T09:02:39.477Z,21.48
2019-04-30T09:05:18.544Z,21.17
2019-04-30T09:07:49.148Z,21.05
2019-04-30T09:10:19.537Z,19.98
2019-04-30T09:12:52.004Z,20.75
2019-04-30T09:15:22.177Z,19.70
2019-04-30T09:18:03.226Z,19.30
2019-04-30T09:20:25.464Z,19.90
2019-04-30T09:22:55.860Z,19.65
2019-04-30T09:25:28.666Z,18.55
2019-04-30T09:27:59.597Z,18.90
2019-04-30T09:30:30.043Z,18.80
2019-04-30T09:33:00.585Z,18.82
2019-04-30T09:35:32.288Z,17.57
2019-04-30T09:38:02.728Z,18.15
2019-04-30T09:40:34.101Z,18.23
2019-04-30T09:43:04.509Z,18.40
2019-04-30T09:45:36.317Z,17.98
2019-04-30T09:48:06.628Z,17.07
2019-04-30T09:50:39.362Z,17.65
2019-04-30T09:53:10.680Z,17.07
2019-04-30T09:55:41.423Z,16.82
2019-04-30T09:58:16.984Z,17.00
2019-04-30T10:00:44.180Z,16.42
2019-04-30T10:03:17.439Z,17.07
2019-04-30T10:05:49.181Z,15.63
2019-04-30T10:08:21.254Z,15.65
2019-04-30T10:11:16.978Z,16.15
2019-04-30T10:13:47.488Z,15.35
2019-04-30T10:16:29.534Z,15.78
2019-04-30T10:19:01.389Z,15.23
2019-04-30T10:21:32.861Z,14.70
2019-04-30T10:24:13.110Z,14.25
2019-04-30T10:26:37.588Z,14.87
2019-04-30T10:29:09.048Z,14.07
2019-04-30T10:31:39.914Z,14.25
2019-04-30T10:34:10.451Z,14.40
2019-04-30T10:36:41.500Z,13.95
2019-04-30T10:39:12.031Z,14.35
2019-04-30T10:41:42.508Z,13.28
2019-04-30T10:44:15.238Z,14.33
2019-04-30T10:46:46.126Z,14.05
2019-04-30T10:49:18.976Z,13.50
2019-04-30T10:51:48.957Z,13.03
2019-04-30T10:54:26.132Z,12.90
2019-04-30T10:56:51.717Z,13.22
2019-04-30T10:59:22.272Z,13.00
2019-04-30T11:01:52.641Z,12.65
2019-04-30T11:04:23.014Z,12.73
2019-04-30T11:06:53.495Z,12.40
2019-04-30T11:09:27.008Z,12.05
2019-04-30T11:11:59.352Z,12.25
2019-04-30T11:14:29.560Z,12.07
2019-04-30T11:17:00.508Z,12.75
2019-04-30T11:19:31.685Z,11.73
2019-04-30T11:22:02.467Z,12.35
2019-04-30T11:24:38.025Z,11.80
2019-04-30T11:27:05.685Z,11.83
2019-04-30T11:29:36.589Z,11.60
2019-04-30T11:32:15.724Z,11.63
2019-04-30T11:34:46.201Z,11.20
2019-04-30T11:37:16.686Z,11.25
2019-04-30T11:39:46.985Z,10.70
2019-04-30T11:42:17.358Z,10.53
2019-04-30T11:44:48.747Z,11.00
2019-04-30T11:47:26.136Z,10.75
2019-04-30T11:49:56.697Z,10.75
2019-04-30T11:52:27.215Z,10.40
2019-04-30T11:54:59.650Z,10.08
2019-04-30T11:57:30.010Z,9.58
2019-04-30T12:00:00.429Z,10.45
2019-04-30T12:02:36.073Z,10.05
2019-04-30T12:05:07.098Z,9.85
2019-04-30T12:07:54.864Z,9.88
2019-04-30T12:10:30.468Z,9.63
2019-04-30T12:13:00.703Z,9.85
2019-04-30T12:15:31.215Z,9.03
2019-04-30T12:18:01.584Z,9.13
2019-04-30T12:20:33.631Z,8.60
2019-04-30T12:23:03.971Z,7.22
2019-04-30T12:25:35.414Z,7.60
2019-04-30T12:28:05.747Z,8.05
2019-04-30T12:30:36.136Z,8.70
2019-04-30T12:33:06.489Z,7.92
2019-04-30T12:35:36.897Z,10.68
2019-04-30T12:38:08.788Z,12.75
2019-04-30T12:40:40.886Z,10.00
2019-04-30T12:43:11.388Z,7.22
2019-04-30T12:45:41.884Z,5.00
2019-04-30T12:48:21.137Z,3.30
2019-04-30T12:51:19.384Z,3.10
2019-04-30T12:53:56.590Z,2.50
2019-04-30T12:56:45.710Z,2.30
2019-04-30T12:59:15.954Z,2.52
2019-04-30T13:01:46.379Z,2.42
2019-04-30T13:04:16.716Z,2.35
2019-04-30T13:06:48.782Z,2.12
2019-04-30T13:09:20.680Z,2.35
2019-04-30T13:11:52.192Z,3.17
2019-04-30T13:14:23.330Z,2.98
2019-04-30T13:16:54.067Z,2.58
2019-04-30T13:19:24.341Z,2.10
2019-04-30T13:21:54.804Z,2.85
2019-04-30T13:24:26.240Z,3.30
2019-04-30T13:26:56.826Z,3.00
2019-04-30T13:29:31.491Z,3.50
2019-04-30T13:32:01.959Z,3.45
2019-04-30T13:34:49.578Z,3.17
2019-04-30T13:37:19.854Z,3.20
2019-04-30T13:40:03.233Z,5.12
2019-04-30T13:42:38.915Z,3.62
2019-04-30T13:45:09.372Z,3.42
2019-04-30T13:47:39.773Z,3.10
2019-04-30T13:50:11.141Z,21.48
2019-04-30T13:52:42.690Z,32.90
2019-04-30T13:55:12.941Z,30.95
2019-04-30T13:57:43.333Z,27.62
2019-04-30T14:00:18.516Z,20.92
2019-04-30T14:02:54.037Z,14.55
2019-04-30T14:05:24.400Z,14.30
2019-04-30T14:08:10.901Z,15.45
2019-04-30T14:10:43.241Z,20.08
2019-04-30T14:13:13.823Z,20.12
2019-04-30T14:15:45.572Z,18.42
2019-04-30T14:18:27.987Z,17.62
2019-04-30T14:20:48.260Z,18.70
2019-04-30T14:23:18.788Z,18.10
2019-04-30T14:25:56.365Z,18.45
2019-04-30T14:28:21.263Z,19.82
2019-04-30T14:30:51.663Z,19.95
2019-04-30T14:33:26.307Z,19.70
2019-04-30T14:35:54.124Z,19.40
2019-04-30T14:38:24.516Z,20.68
2019-04-30T14:40:55.258Z,19.90
2019-04-30T14:43:57.721Z,20.30
2019-04-30T14:46:50.532Z,19.35
2019-04-30T14:49:38.475Z,20.68
2019-04-30T14:52:09.829Z,20.37
2019-04-30T14:54:58.789Z,21.62
2019-04-30T14:57:52.190Z,20.37
2019-04-30T15:00:34.148Z,20.40
2019-04-30T15:03:12.564Z,21.42
2019-04-30T15:05:48.777Z,20.92
2019-04-30T15:08:14.997Z,22.50
2019-04-30T15:10:45.479Z,20.90
2019-04-30T15:13:16.313Z,34.03
2019-04-30T15:15:46.624Z,25.68
2019-04-30T15:18:19.052Z,29.80
2019-04-30T15:20:49.745Z,29.65
2019-04-30T15:23:44.246Z,29.18
2019-04-30T15:26:22.111Z,27.52
2019-04-30T15:28:53.214Z,27.62
2019-04-30T15:31:23.716Z,27.62
2019-04-30T15:34:02.962Z,27.17
2019-04-30T15:36:31.779Z,27.17
2019-04-30T15:39:20.073Z,26.68
2019-04-30T15:41:50.524Z,26.60
2019-04-30T15:44:20.994Z,25.62
2019-04-30T15:46:51.601Z,25.62
2019-04-30T15:49:22.395Z,25.27
2019-04-30T15:51:52.853Z,25.85
2019-04-30T15:54:23.246Z,24.65
2019-04-30T15:56:53.836Z,24.65
2019-04-30T15:59:43.171Z,21.55
2019-04-30T16:02:31.137Z,22.67
2019-04-30T16:05:22.268Z,21.23
2019-04-30T16:08:18.979Z,23.02
2019-04-30T16:11:17.113Z,21.80
2019-04-30T16:14:19.448Z,21.40
2019-04-30T16:16:59.205Z,21.33
2019-04-30T16:19:29.530Z,20.35
2019-04-30T16:21:59.984Z,20.68
2019-04-30T16:24:30.408Z,19.90
2019-04-30T16:27:00.742Z,20.05
2019-04-30T16:29:32.122Z,18.42
2019-04-30T16:32:02.622Z,19.25
2019-04-30T16:34:33.289Z,18.80
2019-04-30T16:37:03.674Z,18.32
2019-04-30T16:39:34.102Z,18.55
2019-04-30T16:42:04.536Z,17.27
2019-04-30T16:44:35.016Z,17.45
2019-04-30T16:47:13.665Z,17.02
2019-04-30T16:49:38.786Z,16.97
2019-04-30T16:52:09.298Z,18.05
2019-04-30T16:54:40.075Z,16.42
2019-04-30T16:57:10.525Z,17.02
2019-04-30T16:59:42.248Z,16.20
2019-04-30T17:02:11.634Z,15.98
2019-04-30T17:04:56.728Z,15.45
2019-04-30T17:07:50.659Z,15.23
2019-04-30T17:10:50.420Z,16.05
2019-04-30T17:13:45.831Z,16.05
2019-04-30T17:16:19.520Z,14.55
2019-04-30T17:18:50.234Z,14.63
2019-04-30T17:21:20.731Z,14.90
2019-04-30T17:23:51.213Z,14.93
2019-04-30T17:26:21.452Z,14.63
2019-04-30T17:28:51.789Z,14.28
2019-04-30T17:31:22.060Z,13.43
2019-04-30T17:33:52.317Z,12.10
2019-04-30T17:36:23.508Z,11.48
2019-04-30T17:38:53.885Z,11.63
2019-04-30T17:41:24.180Z,10.90
2019-04-30T17:43:54.440Z,11.03
2019-04-30T17:46:24.739Z,11.18
2019-04-30T17:48:54.972Z,11.00
2019-04-30T17:51:25.501Z,11.88
2019-04-30T17:54:14.203Z,12.37
2019-04-30T17:56:45.184Z,12.10
2019-04-30T17:59:15.428Z,12.60
2019-04-30T18:01:54.501Z,11.90
2019-04-30T18:04:24.743Z,12.10
2019-04-30T18:06:55.356Z,12.15
2019-04-30T18:09:26.242Z,12.23
2019-04-30T18:11:56.521Z,12.00
2019-04-30T18:14:28.544Z,11.83
2019-04-30T18:16:59.499Z,11.88
2019-04-30T18:19:46.991Z,10.85
2019-04-30T18:22:37.150Z,11.60
2019-04-30T18:25:22.020Z,11.35
2019-04-30T18:27:56.441Z,11.05
2019-04-30T18:30:29.274Z,10.60
2019-04-30T18:32:58.545Z,11.50
2019-04-30T18:35:30.686Z,10.63
2019-04-30T18:38:01.075Z,11.40
2019-04-30T18:40:32.877Z,10.85
2019-04-30T18:43:04.085Z,10.70
2019-04-30T18:45:35.549Z,10.20
2019-04-30T18:48:06.112Z,9.68
2019-04-30T18:50:36.561Z,9.98
2019-04-30T18:53:13.186Z,9.98
2019-04-30T18:55:43.638Z,9.73
2019-04-30T18:58:13.899Z,10.20
2019-04-30T19:00:44.996Z,10.18
2019-04-30T19:03:15.519Z,9.45
2019-04-30T19:05:49.705Z,10.48
2019-04-30T19:08:35.108Z,10.45
2019-04-30T19:11:23.086Z,12.18
2019-04-30T19:14:19.257Z,14.95
2019-04-30T19:17:09.467Z,16.12
2019-04-30T19:20:08.576Z,17.60
2019-04-30T19:22:39.791Z,18.98
2019-04-30T19:25:10.320Z,21.45
2019-04-30T19:27:40.934Z,22.37
2019-04-30T19:30:12.182Z,22.20
2019-04-30T19:32:42.688Z,24.52
2019-04-30T19:35:13.035Z,24.47
2019-04-30T19:37:43.359Z,26.15
2019-04-30T19:40:13.873Z,28.07
2019-04-30T19:42:44.443Z,29.72
2019-04-30T19:45:15.757Z,33.28
2019-04-30T19:47:46.179Z,33.73
2019-04-30T19:50:16.820Z,34.73
2019-04-30T19:52:47.406Z,36.23
2019-04-30T19:55:20.434Z,36.25
2019-04-30T19:57:51.082Z,34.03
2019-04-30T20:00:21.842Z,37.00
2019-04-30T20:02:52.385Z,37.45
2019-04-30T20:05:22.869Z,39.50
2019-04-30T20:07:53.396Z,38.98
2019-04-30T20:10:24.548Z,39.55
2019-04-30T20:12:55.532Z,40.50
2019-04-30T20:15:26.864Z,45.78
2019-04-30T20:17:58.334Z,47.65
2019-04-30T20:20:29.430Z,53.78
2019-04-30T20:23:00.018Z,65.87
2019-04-30T20:25:30.456Z,78.47
2019-04-30T20:28:02.343Z,86.63
2019-04-30T20:30:32.722Z,82.70
2019-04-30T20:33:03.805Z,81.10
2019-04-30T20:35:34.339Z,83.95
2019-04-30T20:38:26.902Z,90.20
2019-04-30T20:41:02.313Z,86.32
2019-04-30T20:43:29.489Z,87.55
2019-04-30T20:46:00.878Z,91.55
2019-04-30T20:48:31.457Z,89.03
2019-04-30T20:51:02.110Z,87.57
2019-04-30T20:53:32.628Z,88.85
2019-04-30T20:56:03.218Z,87.33
2019-04-30T20:58:33.827Z,85.75
2019-04-30T21:01:06.617Z,88.92
2019-04-30T21:03:39.712Z,104.25
2019-04-30T21:06:10.235Z,115.77
2019-04-30T21:08:40.845Z,118.20
2019-04-30T21:11:11.459Z,122.75
2019-04-30T21:13:42.424Z,118.08
2019-04-30T21:16:13.220Z,123.25
2019-04-30T21:18:45.136Z,121.07
2019-04-30T21:21:15.881Z,120.05
2019-04-30T21:23:46.356Z,122.28
2019-04-30T21:26:16.795Z,119.33
2019-04-30T21:28:49.555Z,120.95
2019-04-30T21:31:37.843Z,117.97
2019-04-30T21:34:31.800Z,121.70
2019-04-30T21:37:02.347Z,120.02
2019-04-30T21:39:33.117Z,116.17
2019-04-30T21:42:04.023Z,118.28
2019-04-30T21:44:34.440Z,115.95
2019-04-30T21:47:06.091Z,116.20
2019-04-30T21:49:36.638Z,114.80
2019-04-30T21:52:08.564Z,114.03
2019-04-30T21:54:39.087Z,112.50
2019-04-30T21:57:10.065Z,112.80
2019-04-30T21:59:40.620Z,112.37
2019-04-30T22:02:16.362Z,114.75
2019-04-30T22:04:47.251Z,113.65
2019-04-30T22:07:19.537Z,108.78
2019-04-30T22:09:49.899Z,107.67
2019-04-30T22:12:20.223Z,105.83
2019-04-30T22:14:50.535Z,110.55
2019-04-30T22:17:20.770Z,107.22
2019-04-30T22:19:51.631Z,105.78
2019-04-30T22:22:23.203Z,107.35
2019-04-30T22:24:53.635Z,106.45
2019-04-30T22:27:24.215Z,105.05
2019-04-30T22:29:54.489Z,103.80
2019-04-30T22:32:24.903Z,105.97
2019-04-30T22:34:56.980Z,103.58
2019-04-30T22:37:27.455Z,101.55
2019-04-30T22:40:02.833Z,99.32
2019-04-30T22:42:34.013Z,101.42
2019-04-30T22:45:07.080Z,99.35
2019-04-30T22:47:37.505Z,100.72
2019-04-30T22:50:08.694Z,97.47
2019-04-30T22:52:39.112Z,96.40
2019-04-30T22:55:09.530Z,96.05
2019-04-30T22:57:40.105Z,94.52
2019-04-30T23:00:14.397Z,96.47
2019-04-30T23:03:04.803Z,96.57
2019-04-30T23:05:35.247Z,94.45
2019-04-30T23:08:05.629Z,98.05
2019-04-30T23:10:36.194Z,91.35
2019-04-30T23:13:06.693Z,92.40
2019-04-30T23:15:37.184Z,93.10
2019-04-30T23:18:07.443Z,91.70
2019-04-30T23:20:37.716Z,89.55
2019-04-30T23:23:08.093Z,90.85
2019-04-30T23:25:38.397Z,87.10
2019-04-30T23:28:08.739Z,91.35
2019-04-30T23:30:39.150Z,85.77
2019-04-30T23:33:09.481Z,86.97
2019-04-30T23:35:39.842Z,87.78
2019-04-30T23:38:10.185Z,86.20
2019-04-30T23:40:49.118Z,82.72
2019-04-30T23:43:19.501Z,84.67
2019-04-30T23:45:49.740Z,84.87
2019-04-30T23:48:20.177Z,84.58
2019-04-30T23:50:50.604Z,82.60
2019-04-30T23:53:21.025Z,83.27
2019-04-30T23:55:51.599Z,79.72
2019-04-30T23:58:23.088Z,80.55
